Time;durP1;ratioP1;P1;durP2;ratioP2;P2;SDS_P1;SDS_P2;PMS_P1;PMS_P2;Temp;Humidity;BMP_temperature;BMP_pressure;BME280_temperature;BME280_humidity;BME280_pressure;Samples;Min_cycle;Max_cycle;Signal;HPM_P1;HPM_P2
2022/10/09 00:01:16;;;;;;;9.97;6.10;;;6.20;1.00;;;;;;5093303;28;20420;-80
2022/10/09 00:07:13;;;;;;;10.53;6.23;;;6.20;1.00;;;;;;5075202;28;20416;-80
2022/10/09 00:10:07;;;;;;;16.00;6.70;;;6.20;1.00;;;;;;5084324;28;21092;-81
2022/10/09 00:16:06;;;;;;;8.63;5.97;;;6.10;1.00;;;;;;5080550;28;20461;-80
2022/10/09 00:32:00;;;;;;;14.97;6.50;;;6.00;1.00;;;;;;5075325;28;20470;-80
2022/10/09 00:41:22;;;;;;;16.13;6.40;;;5.80;1.00;;;;;;5091125;28;20407;-86
2022/10/09 00:43:58;;;;;;;12.07;6.10;;;5.80;1.00;;;;;;5092787;28;20420;-86
2022/10/09 00:46:43;;;;;;;11.00;6.60;;;5.80;1.00;;;;;;5092954;28;20496;-85
2022/10/09 00:49:28;;;;;;;9.80;7.33;;;5.80;1.00;;;;;;5091192;28;20409;-85
2022/10/09 00:52:13;;;;;;;13.50;7.20;;;5.80;1.00;;;;;;5092057;28;20486;-85
2022/10/09 00:58:01;;;;;;;13.40;6.60;;;5.80;1.00;;;;;;5080337;28;20384;-80
2022/10/09 01:00:37;;;;;;;13.30;6.90;;;5.80;1.00;;;;;;5086710;28;20928;-80
2022/10/09 01:10:14;;;;;;;12.10;6.10;;;5.60;1.00;;;;;;5091430;28;20387;-80
2022/10/09 01:16:08;;;;;;;10.73;7.13;;;5.60;1.00;;;;;;5009519;28;20606;-80
2022/10/09 01:18:49;;;;;;;8.30;6.30;;;5.60;1.00;;;;;;5014720;28;20977;-80
2022/10/09 01:25:17;;;;;;;11.07;7.00;;;5.60;1.00;;;;;;4999260;28;20416;-80
2022/10/09 01:31:42;;;;;;;15.13;6.83;;;5.50;1.00;;;;;;5015307;28;20419;-86
2022/10/09 01:37:31;;;;;;;15.73;7.40;;;5.50;1.00;;;;;;5015567;28;20419;-86
2022/10/09 01:39:57;;;;;;;11.80;7.90;;;5.50;1.00;;;;;;4998844;28;20420;-85
2022/10/09 01:45:46;;;;;;;14.40;8.10;;;5.50;1.00;;;;;;5014347;28;20416;-85
2022/10/09 01:52:26;;;;;;;14.60;8.17;;;5.50;1.00;;;;;;5092833;28;21011;-86
2022/10/09 01:55:36;;;;;;;17.70;9.03;;;5.50;1.00;;;;;;5080669;28;20773;-85
2022/10/09 02:01:30;;;;;;;18.93;9.10;;;5.40;1.00;;;;;;5083969;28;20760;-85
2022/10/09 02:04:36;;;;;;;12.63;8.70;;;5.50;1.00;;;;;;5075694;28;20421;-86
2022/10/09 02:10:25;;;;;;;15.77;9.40;;;5.50;1.00;;;;;;5082256;28;20415;-86
2022/10/09 02:13:49;;;;;;;15.50;8.80;;;5.50;1.00;;;;;;5093442;28;20432;-80
2022/10/09 02:19:47;;;;;;;20.27;9.70;;;5.50;1.00;;;;;;5075938;28;20512;-80
2022/10/09 02:22:32;;;;;;;15.33;8.27;;;5.40;1.00;;;;;;5085923;28;20969;-80
2022/10/09 02:28:20;;;;;;;15.87;8.00;;;5.40;1.00;;;;;;5085438;28;20536;-86
2022/10/09 02:31:30;;;;;;;16.00;7.70;;;5.50;1.00;;;;;;5082660;28;20559;-86
2022/10/09 02:44:03;;;;;;;15.53;8.77;;;5.40;1.00;;;;;;5082307;28;20459;-79
2022/10/09 02:53:42;;;;;;;12.47;9.07;;;5.30;1.00;;;;;;5079721;28;20415;-80
2022/10/09 02:56:36;;;;;;;19.67;9.30;;;5.30;1.00;;;;;;5083324;28;20449;-80
2022/10/09 03:02:25;;;;;;;16.20;8.10;;;5.40;1.00;;;;;;5083007;28;20477;-86
2022/10/09 03:04:50;;;;;;;17.00;9.37;;;5.30;1.00;;;;;;5075811;28;20433;-86
2022/10/09 03:07:36;;;;;;;19.03;9.50;;;5.40;1.00;;;;;;5084180;28;20424;-86
2022/10/09 03:10:37;;;;;;;20.53;10.53;;;5.40;1.00;;;;;;5077115;28;20281;-85
2022/10/09 03:20:13;;;;;;;14.57;9.40;;;5.40;1.00;;;;;;5081972;28;20507;-80
2022/10/09 03:32:44;;;;;;;15.93;10.70;;;5.40;1.00;;;;;;5094865;28;20427;-85
2022/10/09 03:38:32;;;;;;;15.50;10.87;;;5.40;1.00;;;;;;5079602;28;20232;-86
2022/10/09 03:41:39;;;;;;;15.13;10.63;;;5.40;1.00;;;;;;5085978;28;20432;-86
2022/10/09 03:47:43;;;;;;;25.17;10.90;;;5.40;1.00;;;;;;5082557;28;20423;-80
2022/10/09 04:00:50;;;;;;;22.33;10.67;;;5.40;1.00;;;;;;5082511;28;20767;-80
2022/10/09 04:06:37;;;;;;;24.10;11.20;;;5.40;1.00;;;;;;5085123;28;20486;-80
2022/10/09 04:12:24;;;;;;;18.80;11.27;;;5.40;1.00;;;;;;5088554;28;20213;-80
2022/10/09 04:21:34;;;;;;;20.23;10.57;;;5.40;1.00;;;;;;5085517;28;20470;-81
2022/10/09 04:24:07;;;;;;;16.53;10.50;;;5.40;1.00;;;;;;5075353;28;20428;-80
2022/10/09 04:36:38;;;;;;;17.33;10.53;;;5.30;1.00;;;;;;5082192;28;20459;-87
2022/10/09 04:42:56;;;;;;;18.40;10.37;;;5.20;1.00;;;;;;5081717;28;20178;-86
2022/10/09 04:48:45;;;;;;;16.70;10.43;;;5.20;1.00;;;;;;5079059;28;20424;-87
2022/10/09 04:51:11;;;;;;;14.93;10.60;;;5.10;1.00;;;;;;5091080;28;20432;-87
2022/10/09 04:54:13;;;;;;;19.37;10.70;;;5.10;1.00;;;;;;5076254;28;20436;-88
2022/10/09 05:00:01;;;;;;;15.33;10.00;;;5.10;1.00;;;;;;5079206;28;20458;-81
2022/10/09 05:09:11;;;;;;;16.03;11.30;;;5.00;1.00;;;;;;5076091;28;20503;-74
2022/10/09 05:11:36;;;;;;;17.00;11.30;;;5.00;1.00;;;;;;5089502;28;20526;-74
2022/10/09 05:14:02;;;;;;;20.57;11.73;;;5.10;1.00;;;;;;5076681;28;20201;-74
2022/10/09 05:16:37;;;;;;;19.70;11.93;;;5.10;1.00;;;;;;5082119;28;20444;-74
2022/10/09 05:19:03;;;;;;;21.20;12.10;;;5.10;1.00;;;;;;5073399;28;20175;-74
2022/10/09 05:21:37;;;;;;;20.00;11.77;;;5.00;1.00;;;;;;5083833;28;20425;-74
2022/10/09 05:24:13;;;;;;;17.17;11.20;;;5.10;1.00;;;;;;5080579;28;20437;-74
2022/10/09 05:26:49;;;;;;;21.63;11.50;;;5.10;1.00;;;;;;5081320;28;20442;-74
2022/10/09 05:29:37;;;;;;;21.30;11.73;;;5.10;1.00;;;;;;5084292;28;20419;-74
2022/10/09 05:32:07;;;;;;;21.85;11.00;;;5.20;1.00;;;;;;5082096;28;20430;-74
2022/10/09 05:34:34;;;;;;;17.23;10.57;;;5.20;1.00;;;;;;5089304;28;20191;-74
2022/10/09 05:36:59;;;;;;;19.10;10.83;;;5.20;1.00;;;;;;5080195;28;20468;-74
2022/10/09 05:39:25;;;;;;;28.07;11.23;;;5.20;1.00;;;;;;5078825;28;20773;-74
2022/10/09 05:41:55;;;;;;;16.90;10.70;;;5.20;1.00;;;;;;5091929;28;20533;-74
2022/10/09 05:44:21;;;;;;;18.37;11.50;;;5.20;1.00;;;;;;5089709;28;20424;-73
2022/10/09 05:46:47;;;;;;;19.67;10.50;;;5.30;1.00;;;;;;5080557;28;20803;-73
2022/10/09 05:49:13;;;;;;;20.30;10.53;;;5.30;1.00;;;;;;5080275;28;20186;-73
2022/10/09 05:51:41;;;;;;;15.47;11.10;;;5.30;1.00;;;;;;5084833;28;20221;-73
2022/10/09 05:54:11;;;;;;;18.47;10.70;;;5.30;1.00;;;;;;5085509;28;20186;-73
2022/10/09 05:56:38;;;;;;;18.40;10.83;;;5.30;1.00;;;;;;5080909;28;20458;-72
2022/10/09 05:59:08;;;;;;;19.50;11.40;;;5.30;1.00;;;;;;5079049;28;20516;-74
2022/10/09 06:01:40;;;;;;;17.83;10.43;;;5.30;1.00;;;;;;5089203;28;20481;-74
2022/10/09 06:04:09;;;;;;;20.43;10.07;;;5.30;1.00;;;;;;5080746;28;20448;-75
2022/10/09 06:06:38;;;;;;;19.63;10.60;;;5.30;1.00;;;;;;5076253;28;20467;-74
2022/10/09 06:09:06;;;;;;;17.50;11.10;;;5.30;1.00;;;;;;5083397;28;20425;-75
2022/10/09 06:11:50;;;;;;;21.20;11.03;;;5.30;1.00;;;;;;5077876;28;20472;-75
2022/10/09 06:14:25;;;;;;;20.47;10.57;;;5.40;1.00;;;;;;5081994;28;20930;-74
2022/10/09 06:16:51;;;;;;;18.47;11.23;;;5.40;1.00;;;;;;5076448;28;20497;-74
2022/10/09 06:19:20;;;;;;;19.47;10.70;;;5.40;1.00;;;;;;5087593;28;20516;-72
2022/10/09 06:21:46;;;;;;;17.50;10.70;;;5.40;1.00;;;;;;5082364;28;20216;-74
2022/10/09 06:24:22;;;;;;;18.73;10.57;;;5.50;1.00;;;;;;5077222;28;20464;-75
2022/10/09 06:26:49;;;;;;;17.92;11.15;;;5.50;1.00;;;;;;5085837;28;20802;-74
2022/10/09 06:29:19;;;;;;;21.93;11.17;;;5.50;1.00;;;;;;5077910;28;20190;-75
2022/10/09 06:31:45;;;;;;;20.50;11.33;;;5.50;1.00;;;;;;5084145;28;20423;-72
2022/10/09 06:34:20;;;;;;;19.63;10.90;;;5.60;1.00;;;;;;5089882;28;20774;-73
2022/10/09 06:36:45;;;;;;;14.27;10.33;;;5.70;1.00;;;;;;5074861;28;20308;-74
2022/10/09 06:39:11;;;;;;;14.60;9.50;;;5.70;1.00;;;;;;5076816;28;20936;-74
2022/10/09 06:41:37;;;;;;;25.23;9.80;;;5.80;1.00;;;;;;5078676;28;20188;-73
2022/10/09 06:44:05;;;;;;;17.90;10.07;;;5.80;1.00;;;;;;5082854;28;20650;-73
2022/10/09 06:46:34;;;;;;;14.23;10.20;;;5.90;1.00;;;;;;5090673;28;20188;-74
2022/10/09 06:49:02;;;;;;;17.43;10.50;;;6.00;1.00;;;;;;5083001;28;20413;-75
2022/10/09 06:51:29;;;;;;;13.87;9.70;;;6.10;1.00;;;;;;5086362;28;20468;-77
2022/10/09 06:54:06;;;;;;;16.40;10.00;;;6.10;1.00;;;;;;5087016;28;20513;-73
2022/10/09 06:56:32;;;;;;;21.43;9.70;;;6.20;1.00;;;;;;5080824;28;20449;-73
2022/10/09 06:59:02;;;;;;;17.30;10.47;;;6.20;1.00;;;;;;5082012;28;20436;-75
2022/10/09 07:01:30;;;;;;;17.97;11.67;;;6.30;1.00;;;;;;5081524;28;20423;-73
2022/10/09 07:04:05;;;;;;;19.50;10.60;;;6.40;1.00;;;;;;5088295;28;20519;-73
2022/10/09 07:06:35;;;;;;;18.73;10.47;;;6.50;1.00;;;;;;5081438;28;20425;-73
2022/10/09 07:09:05;;;;;;;17.53;10.40;;;6.50;1.00;;;;;;5080167;28;20832;-73
2022/10/09 07:11:36;;;;;;;16.67;9.50;;;6.60;1.00;;;;;;5091588;28;20420;-73
2022/10/09 07:14:09;;;;;;;17.43;10.27;;;6.70;1.00;;;;;;5078605;28;20540;-73
2022/10/09 07:16:38;;;;;;;22.43;9.33;;;6.80;1.00;;;;;;5076310;28;20449;-73
2022/10/09 07:19:10;;;;;;;16.17;10.37;;;6.90;1.00;;;;;;5094142;28;20416;-73
2022/10/09 07:21:37;;;;;;;15.77;10.43;;;7.00;1.00;;;;;;5084621;28;20426;-73
2022/10/09 07:24:04;;;;;;;17.73;11.10;;;7.10;1.00;;;;;;5082850;28;20421;-74
2022/10/09 07:26:33;;;;;;;15.03;10.30;;;7.30;1.00;;;;;;5083755;28;20456;-69
2022/10/09 07:28:59;;;;;;;19.20;11.23;;;7.40;1.00;;;;;;5076672;28;20432;-69
2022/10/09 07:31:26;;;;;;;21.90;10.97;;;7.50;1.00;;;;;;5084480;28;20440;-70
2022/10/09 07:33:54;;;;;;;24.93;11.27;;;7.70;1.00;;;;;;5088510;28;20899;-71
2022/10/09 07:36:32;;;;;;;19.63;10.70;;;7.80;1.20;;;;;;5073992;28;20452;-85
2022/10/09 07:39:03;;;;;;;22.63;10.10;;;8.00;2.80;;;;;;5077151;28;20432;-75
2022/10/09 07:41:29;;;;;;;14.67;9.83;;;8.10;1.00;;;;;;5073558;28;20462;-74
2022/10/09 07:43:55;;;;;;;21.40;9.60;;;8.20;1.00;;;;;;5073725;28;20502;-75
2022/10/09 07:46:31;;;;;;;13.37;8.80;;;8.40;1.00;;;;;;5075936;28;20533;-78
2022/10/09 07:52:19;;;;;;;13.03;7.87;;;8.60;1.00;;;;;;5079055;28;21111;-80
2022/10/09 07:54:45;;;;;;;9.30;7.13;;;8.80;1.00;;;;;;5092894;28;20384;-80
2022/10/09 07:57:25;;;;;;;8.73;6.80;;;8.80;1.00;;;;;;5079229;28;20269;-79
2022/10/09 07:59:51;;;;;;;9.30;5.83;;;9.00;1.00;;;;;;5081260;28;20185;-80
2022/10/09 08:02:55;;;;;;;16.33;6.00;;;9.10;1.00;;;;;;5074454;28;20429;-75
2022/10/09 08:05:20;;;;;;;6.00;4.70;;;9.20;1.00;;;;;;5083411;28;20432;-73
2022/10/09 08:07:50;;;;;;;5.53;4.93;;;9.30;1.00;;;;;;5083099;28;20420;-76
2022/10/09 08:13:38;;;;;;;13.63;4.77;;;9.50;1.00;;;;;;5074182;28;20434;-76
2022/10/09 08:16:05;;;;;;;6.90;4.70;;;9.60;1.00;;;;;;5078388;28;20471;-76
2022/10/09 08:18:32;;;;;;;10.13;4.90;;;9.80;1.00;;;;;;5078695;28;20854;-76
2022/10/09 08:24:25;;;;;;;7.00;4.13;;;10.00;1.00;;;;;;5081591;28;20442;-76
2022/10/09 08:30:49;;;;;;;6.73;4.57;;;10.20;1.00;;;;;;5077114;28;20837;-76
2022/10/09 08:33:55;;;;;;;7.27;4.40;;;10.40;1.00;;;;;;5084785;28;20429;-78
2022/10/09 08:36:26;;;;;;;8.50;4.37;;;10.50;1.00;;;;;;5075838;28;20451;-78
2022/10/09 08:45:39;;;;;;;12.83;3.50;;;10.90;1.00;;;;;;5073207;28;20458;-79
2022/10/09 08:51:37;;;;;;;11.93;3.90;;;11.20;1.00;;;;;;5072611;28;20408;-79
2022/10/09 08:54:14;;;;;;;10.13;3.83;;;11.40;1.00;;;;;;5078853;28;20516;-78
2022/10/09 09:04:07;;;;;;;10.50;3.90;;;11.70;1.00;;;;;;5078168;28;20400;-76
2022/10/09 09:07:09;;;;;;;4.50;3.43;;;11.80;1.00;;;;;;5082065;28;20443;-77
2022/10/09 09:09:46;;;;;;;5.43;2.90;;;11.90;1.00;;;;;;5083956;28;20906;-77
2022/10/09 09:15:53;;;;;;;10.13;3.43;;;12.10;1.00;;;;;;5083763;28;20467;-76
2022/10/09 09:18:47;;;;;;;8.50;3.30;;;12.30;1.00;;;;;;5084947;28;20437;-76
2022/10/09 09:22:01;;;;;;;13.60;3.70;;;12.40;1.00;;;;;;5083044;28;20424;-76
2022/10/09 09:27:52;;;;;;;9.07;3.00;;;12.70;1.00;;;;;;5086592;28;20419;-76
2022/10/09 09:30:36;;;;;;;7.13;3.13;;;12.80;1.00;;;;;;5081382;28;20447;-76
2022/10/09 09:33:42;;;;;;;7.07;2.77;;;12.90;1.00;;;;;;5077559;28;20527;-76
2022/10/09 09:36:37;;;;;;;6.60;2.77;;;13.00;1.00;;;;;;5085139;28;20883;-76
2022/10/09 09:39:03;;;;;;;5.63;3.00;;;13.10;1.00;;;;;;5078804;28;20412;-76
2022/10/09 09:41:59;;;;;;;9.07;3.30;;;13.20;1.00;;;;;;5076826;28;20417;-76
2022/10/09 09:48:33;;;;;;;4.10;2.50;;;13.60;1.00;;;;;;5077077;28;20419;-76
2022/10/09 09:51:28;;;;;;;4.10;2.53;;;13.70;1.00;;;;;;5084644;28;20879;-76
2022/10/09 09:54:02;;;;;;;4.70;3.10;;;13.80;1.00;;;;;;5073853;28;20447;-76
2022/10/09 09:56:36;;;;;;;12.07;3.00;;;13.90;1.00;;;;;;5077704;28;20556;-76
2022/10/09 09:59:41;;;;;;;3.80;2.47;;;14.00;1.00;;;;;;5095022;28;20935;-76
2022/10/09 10:02:31;;;;;;;10.63;2.47;;;14.10;1.00;;;;;;5013521;28;20406;-75
2022/10/09 10:05:34;;;;;;;3.27;2.97;;;14.10;1.00;;;;;;5014023;28;20459;-76
2022/10/09 10:08:31;;;;;;;5.40;3.10;;;14.30;1.00;;;;;;5009100;28;20419;-76
2022/10/09 10:11:00;;;;;;;5.67;2.40;;;14.40;1.00;;;;;;5005920;28;20424;-76
2022/10/09 10:13:45;;;;;;;5.90;2.47;;;14.50;1.00;;;;;;5002141;28;20457;-76
2022/10/09 10:16:23;;;;;;;4.57;2.30;;;14.60;1.00;;;;;;5009003;28;20562;-76
2022/10/09 10:18:50;;;;;;;5.63;2.67;;;14.80;1.00;;;;;;5009034;28;20411;-76
2022/10/09 10:21:59;;;;;;;2.77;2.50;;;14.90;1.00;;;;;;5009568;28;20438;-77
2022/10/09 10:24:37;;;;;;;8.20;3.07;;;15.00;1.00;;;;;;4939828;29;20946;-76
2022/10/09 10:27:29;;;;;;;6.30;2.70;;;15.10;1.00;;;;;;4932621;29;20458;-77
2022/10/09 10:30:14;;;;;;;6.07;2.30;;;15.10;1.00;;;;;;4927788;29;20753;-76
2022/10/09 10:33:05;;;;;;;8.00;2.50;;;15.30;1.00;;;;;;4927541;29;20452;-76
2022/10/09 10:35:40;;;;;;;4.73;2.50;;;15.40;1.00;;;;;;4955295;28;20529;-76
2022/10/09 10:38:31;;;;;;;3.20;2.00;;;15.50;1.00;;;;;;5001090;28;20460;-76
2022/10/09 10:41:26;;;;;;;5.30;2.20;;;15.60;1.00;;;;;;4985712;28;20571;-76
2022/10/09 10:44:33;;;;;;;7.73;2.10;;;15.70;1.00;;;;;;5003591;28;20860;-76
2022/10/09 10:47:04;;;;;;;7.50;2.10;;;15.80;1.00;;;;;;4999901;28;20513;-76
2022/10/09 10:49:49;;;;;;;4.10;2.00;;;15.90;1.00;;;;;;5007139;28;20436;-77
2022/10/09 10:52:42;;;;;;;5.20;2.10;;;15.90;1.00;;;;;;5012341;28;20466;-76
2022/10/09 10:55:32;;;;;;;4.60;2.23;;;16.10;1.00;;;;;;4994964;28;20528;-76
2022/10/09 10:58:27;;;;;;;6.87;2.60;;;16.20;1.00;;;;;;5024907;28;20900;-77
2022/10/09 11:01:30;;;;;;;66.10;33.37;;;16.20;1.00;;;;;;5075489;28;20411;-76
2022/10/09 11:04:13;;;;;;;11.87;4.70;;;16.20;1.00;;;;;;5009375;28;20463;-79
2022/10/09 11:07:12;;;;;;;3.50;2.30;;;16.40;1.00;;;;;;5007360;28;20977;-79
2022/10/09 11:13:43;;;;;;;4.27;2.33;;;16.50;1.00;;;;;;5012513;28;20383;-79
2022/10/09 11:20:21;;;;;;;5.27;2.33;;;16.60;1.00;;;;;;5004118;28;20497;-76
2022/10/09 11:23:05;;;;;;;7.57;3.33;;;16.70;1.00;;;;;;4944458;29;20419;-76
2022/10/09 11:25:55;;;;;;;2.47;1.80;;;16.70;1.00;;;;;;4950956;29;20434;-76
2022/10/09 11:28:55;;;;;;;2.70;1.90;;;16.80;1.00;;;;;;4953096;29;20460;-76
2022/10/09 11:31:52;;;;;;;5.40;2.03;;;16.90;1.00;;;;;;4877789;29;20410;-76
2022/10/09 11:34:48;;;;;;;2.50;1.77;;;16.90;1.00;;;;;;4877446;29;20513;-79
2022/10/09 11:37:24;;;;;;;4.03;2.30;;;17.00;1.00;;;;;;4859727;29;20579;-77
2022/10/09 11:39:50;;;;;;;4.97;1.90;;;17.10;1.00;;;;;;4865834;29;20509;-77
2022/10/09 11:42:22;;;;;;;4.73;1.70;;;17.20;1.00;;;;;;4934906;29;20487;-77
2022/10/09 11:45:00;;;;;;;8.93;2.53;;;17.20;1.00;;;;;;4931779;29;20462;-77
2022/10/09 11:47:45;;;;;;;6.13;1.90;;;17.30;1.00;;;;;;4930933;29;20489;-77
2022/10/09 11:50:50;;;;;;;4.90;2.50;;;17.30;1.00;;;;;;4928163;29;20412;-77
2022/10/09 11:53:55;;;;;;;3.03;1.80;;;17.30;1.00;;;;;;4878213;29;20420;-84
2022/10/09 11:56:59;;;;;;;6.63;1.93;;;17.30;1.00;;;;;;4885367;29;20470;-77
2022/10/09 11:59:43;;;;;;;7.50;2.00;;;17.50;1.00;;;;;;4893527;29;20515;-77
2022/10/09 12:02:49;;;;;;;3.70;2.17;;;17.60;1.00;;;;;;4894729;29;20448;-77
2022/10/09 12:06:01;;;;;;;2.00;1.73;;;17.70;1.00;;;;;;4891689;29;20471;-77
2022/10/09 12:12:14;;;;;;;1.70;1.47;;;18.00;1.00;;;;;;4966430;28;20400;-77
2022/10/09 12:14:47;;;;;;;3.00;1.50;;;18.00;1.00;;;;;;4940663;29;20439;-77
2022/10/09 12:17:33;;;;;;;4.70;2.00;;;18.00;1.00;;;;;;4950013;29;20477;-77
2022/10/09 12:20:25;;;;;;;4.37;1.80;;;17.90;1.00;;;;;;4946186;28;20444;-77
2022/10/09 12:22:55;;;;;;;2.00;1.60;;;18.00;1.00;;;;;;4951518;29;20426;-77
2022/10/09 12:26:02;;;;;;;1.93;1.43;;;18.00;1.00;;;;;;4953002;29;20457;-84
2022/10/09 12:28:37;;;;;;;3.47;1.30;;;18.10;1.00;;;;;;4924577;28;21003;-76
2022/10/09 12:31:14;;;;;;;4.10;1.40;;;18.20;1.00;;;;;;5020954;28;20907;-77
2022/10/09 12:33:46;;;;;;;1.40;1.23;;;18.30;1.00;;;;;;5026482;28;21004;-76
2022/10/09 12:36:22;;;;;;;1.40;1.30;;;18.30;1.00;;;;;;5022394;28;20458;-78
2022/10/09 12:38:48;;;;;;;2.10;0.97;;;18.40;1.00;;;;;;5024535;28;20499;-76
2022/10/09 12:41:25;;;;;;;2.30;1.20;;;18.40;1.00;;;;;;5019003;28;20510;-77
2022/10/09 12:43:57;;;;;;;2.40;1.43;;;18.40;1.00;;;;;;5028129;28;20437;-76
2022/10/09 12:46:30;;;;;;;6.43;1.73;;;18.30;1.00;;;;;;5019860;28;20443;-77
2022/10/09 12:48:57;;;;;;;1.87;1.10;;;18.40;1.00;;;;;;5024321;28;20423;-76
2022/10/09 12:51:49;;;;;;;2.10;1.60;;;18.50;1.00;;;;;;5059179;28;20549;-77
2022/10/09 12:54:20;;;;;;;1.17;1.10;;;18.50;1.00;;;;;;5089917;28;20427;-76
2022/10/09 12:56:51;;;;;;;2.03;1.10;;;18.50;1.00;;;;;;5072768;28;20472;-77
2022/10/09 13:03:19;;;;;;;1.63;1.10;;;18.60;1.00;;;;;;5076024;28;20470;-76
2022/10/09 13:05:50;;;;;;;1.87;1.10;;;18.50;1.00;;;;;;5080849;28;20415;-78
2022/10/09 13:08:54;;;;;;;1.60;0.83;;;18.50;1.00;;;;;;5091469;28;21146;-78
2022/10/09 13:11:42;;;;;;;2.20;1.37;;;18.60;1.00;;;;;;5081184;28;20477;-77
2022/10/09 13:14:42;;;;;;;1.43;1.00;;;18.40;1.00;;;;;;5080898;28;20852;-77
2022/10/09 13:17:34;;;;;;;1.00;0.90;;;18.30;1.00;;;;;;5008342;28;20477;-77
2022/10/09 13:20:19;;;;;;;2.73;1.00;;;18.40;1.00;;;;;;4994406;28;20968;-77
2022/10/09 13:23:24;;;;;;;2.20;1.07;;;18.40;1.00;;;;;;5011286;28;20434;-77
2022/10/09 13:25:51;;;;;;;1.90;1.17;;;18.40;1.00;;;;;;5001266;28;20424;-77
2022/10/09 13:28:25;;;;;;;6.87;1.20;;;18.40;1.00;;;;;;5010804;28;21027;-78
2022/10/09 13:31:19;;;;;;;2.50;1.20;;;18.50;1.00;;;;;;5010942;28;20473;-77
2022/10/09 13:33:45;;;;;;;1.20;1.07;;;18.60;1.00;;;;;;5005462;28;20965;-78
2022/10/09 13:36:49;;;;;;;1.97;1.30;;;18.70;1.00;;;;;;5003316;28;20474;-76
2022/10/09 13:39:26;;;;;;;1.90;1.10;;;18.80;1.00;;;;;;4994012;28;20435;-76
2022/10/09 13:42:20;;;;;;;1.23;0.83;;;18.80;1.00;;;;;;4998478;28;20511;-76
2022/10/09 13:44:56;;;;;;;1.93;1.20;;;18.80;1.00;;;;;;5009048;28;20941;-76
2022/10/09 13:47:32;;;;;;;2.80;1.00;;;18.80;1.00;;;;;;5007204;28;20409;-76
2022/10/09 13:50:19;;;;;;;5.13;1.40;;;18.80;1.00;;;;;;5014963;28;20419;-77
2022/10/09 13:52:55;;;;;;;5.30;1.40;;;18.90;1.00;;;;;;5005601;28;20418;-77
2022/10/09 13:55:21;;;;;;;5.70;1.20;;;18.90;1.00;;;;;;5089334;28;20526;-77
2022/10/09 13:57:49;;;;;;;1.30;1.03;;;18.90;1.00;;;;;;5095733;28;20509;-78
2022/10/09 14:00:25;;;;;;;2.20;1.13;;;18.90;1.00;;;;;;5084763;28;20651;-77
2022/10/09 14:03:31;;;;;;;3.40;1.20;;;19.00;1.00;;;;;;5091927;28;20509;-77
2022/10/09 14:06:25;;;;;;;5.03;1.20;;;18.90;1.00;;;;;;5089612;28;20411;-76
2022/10/09 14:08:51;;;;;;;2.73;1.00;;;18.90;1.00;;;;;;5079712;28;20472;-76
2022/10/09 14:11:19;;;;;;;1.63;1.53;;;18.90;1.00;;;;;;5092786;28;20432;-76
2022/10/09 14:13:49;;;;;;;2.10;1.03;;;19.00;1.00;;;;;;5075338;28;20440;-76
2022/10/09 14:16:31;;;;;;;1.17;0.97;;;19.00;1.00;;;;;;5079791;28;20447;-76
2022/10/09 14:19:13;;;;;;;1.37;1.20;;;19.10;1.00;;;;;;5089331;28;20427;-77
2022/10/09 14:21:57;;;;;;;3.03;1.20;;;19.10;1.00;;;;;;5078954;28;20374;-77
2022/10/09 14:24:43;;;;;;;1.33;1.03;;;19.10;1.00;;;;;;5076003;28;20692;-76
2022/10/09 14:27:09;;;;;;;1.37;0.97;;;19.00;1.00;;;;;;5083693;28;20950;-76
2022/10/09 14:29:49;;;;;;;4.30;1.30;;;19.00;1.00;;;;;;5084303;28;20444;-76
2022/10/09 14:32:15;;;;;;;3.67;1.03;;;19.10;1.00;;;;;;5086066;28;20500;-77
2022/10/09 14:34:49;;;;;;;3.70;1.30;;;19.00;1.00;;;;;;5086164;28;20833;-75
2022/10/09 14:37:37;;;;;;;1.50;0.90;;;19.00;1.00;;;;;;5085226;28;20677;-77
2022/10/09 14:40:31;;;;;;;4.13;1.30;;;19.00;1.00;;;;;;5083531;28;20470;-77
2022/10/09 14:42:57;;;;;;;2.70;1.10;;;19.10;1.00;;;;;;5077429;28;20496;-75
2022/10/09 14:45:23;;;;;;;2.30;1.37;;;19.10;1.00;;;;;;5094230;28;20443;-75
2022/10/09 14:47:49;;;;;;;1.23;1.10;;;19.10;1.00;;;;;;5089658;28;20202;-76
2022/10/09 14:50:20;;;;;;;4.20;1.00;;;19.10;1.00;;;;;;5087219;28;20190;-75
2022/10/09 14:52:46;;;;;;;2.57;1.40;;;19.20;1.00;;;;;;5082943;28;20231;-76
2022/10/09 14:55:12;;;;;;;2.63;0.90;;;19.10;1.00;;;;;;5083326;28;20431;-75
2022/10/09 14:57:38;;;;;;;1.60;1.20;;;19.10;1.00;;;;;;5081589;28;20428;-75
2022/10/09 15:00:05;;;;;;;1.83;1.27;;;19.00;1.00;;;;;;5085913;28;20174;-75
2022/10/09 15:02:43;;;;;;;2.80;1.10;;;19.00;1.00;;;;;;5080552;28;20786;-76
2022/10/09 15:05:09;;;;;;;1.30;1.20;;;18.90;1.00;;;;;;5079589;28;20474;-75
2022/10/09 15:07:35;;;;;;;1.60;1.23;;;18.90;1.00;;;;;;5078970;28;20431;-75
2022/10/09 15:10:01;;;;;;;4.83;1.10;;;18.80;1.00;;;;;;5074766;28;20464;-75
2022/10/09 15:12:32;;;;;;;2.13;1.03;;;18.70;1.00;;;;;;5081157;28;20420;-76
2022/10/09 15:15:25;;;;;;;1.27;1.00;;;18.70;1.00;;;;;;5087061;28;20173;-77
2022/10/09 15:18:08;;;;;;;1.83;1.10;;;18.60;1.00;;;;;;5099678;28;20429;-79
2022/10/09 15:20:33;;;;;;;2.87;1.20;;;18.50;1.00;;;;;;5094868;28;20402;-76
2022/10/09 15:23:01;;;;;;;4.40;1.30;;;18.60;1.00;;;;;;5081565;28;20772;-76
2022/10/09 15:25:38;;;;;;;2.80;1.00;;;18.90;1.00;;;;;;5082061;28;20182;-75
2022/10/09 15:28:05;;;;;;;2.60;1.20;;;19.50;1.00;;;;;;5092459;28;20431;-75
2022/10/09 15:30:51;;;;;;;2.10;1.03;;;20.40;1.00;;;;;;5083017;28;20410;-78
2022/10/09 15:33:18;;;;;;;1.53;1.27;;;21.50;1.00;;;;;;5088139;28;20446;-76
2022/10/09 15:35:44;;;;;;;3.50;1.23;;;22.00;1.00;;;;;;5088481;28;20493;-77
2022/10/09 15:38:18;;;;;;;2.57;1.40;;;22.40;1.00;;;;;;5074218;28;20412;-76
2022/10/09 15:40:46;;;;;;;4.10;1.60;;;23.10;1.00;;;;;;5080353;28;20730;-74
2022/10/09 15:43:15;;;;;;;4.17;1.50;;;23.70;1.00;;;;;;5085803;28;20430;-75
2022/10/09 15:45:45;;;;;;;1.43;1.10;;;24.30;1.00;;;;;;5081939;28;20847;-75
2022/10/09 15:48:19;;;;;;;2.50;1.10;;;24.50;1.00;;;;;;5073928;28;20801;-75
2022/10/09 15:51:12;;;;;;;1.70;1.03;;;25.00;1.00;;;;;;5085836;28;20414;-75
2022/10/09 15:53:51;;;;;;;1.20;1.07;;;24.90;1.00;;;;;;5088191;28;20452;-76
2022/10/09 15:56:22;;;;;;;1.47;0.90;;;24.40;1.00;;;;;;5085921;28;20505;-76
2022/10/09 15:59:15;;;;;;;1.20;0.90;;;23.80;1.00;;;;;;5078433;28;20459;-76
2022/10/09 16:01:42;;;;;;;1.40;1.30;;;23.10;1.00;;;;;;5076325;28;20417;-76
2022/10/09 16:04:08;;;;;;;3.63;1.40;;;22.40;1.00;;;;;;5076028;28;20959;-77
2022/10/09 16:06:34;;;;;;;1.50;1.30;;;21.80;1.00;;;;;;5076632;28;20434;-75
2022/10/09 16:09:02;;;;;;;4.53;1.97;;;21.20;1.00;;;;;;5085682;28;20414;-73
2022/10/09 16:11:28;;;;;;;4.30;1.70;;;20.70;1.00;;;;;;5077337;28;20396;-75
2022/10/09 16:13:56;;;;;;;2.80;2.00;;;20.10;1.00;;;;;;5074034;28;20473;-76
2022/10/09 16:16:26;;;;;;;4.83;1.77;;;19.60;1.00;;;;;;5083321;28;20460;-76
2022/10/09 16:18:53;;;;;;;4.07;1.83;;;19.10;1.00;;;;;;5097071;28;20431;-79
2022/10/09 16:21:26;;;;;;;7.83;1.50;;;18.60;1.00;;;;;;5087056;28;20412;-76
2022/10/09 16:24:02;;;;;;;6.00;1.50;;;18.20;1.00;;;;;;5079238;28;20908;-76
2022/10/09 16:26:28;;;;;;;4.63;1.70;;;17.70;1.00;;;;;;5078016;28;20986;-75
2022/10/09 16:28:54;;;;;;;2.13;1.30;;;17.30;1.00;;;;;;5087659;28;20502;-73
2022/10/09 16:31:25;;;;;;;4.40;2.03;;;17.00;1.00;;;;;;5083125;28;20475;-75
2022/10/09 16:34:03;;;;;;;3.07;1.30;;;16.60;1.00;;;;;;5078495;28;20215;-75
2022/10/09 16:36:29;;;;;;;4.80;1.30;;;16.30;1.00;;;;;;5072946;28;20465;-75
2022/10/09 16:38:56;;;;;;;3.70;1.20;;;15.90;1.00;;;;;;5079966;28;20418;-75
2022/10/09 16:41:26;;;;;;;2.17;1.33;;;15.60;1.00;;;;;;5075415;28;20470;-74
2022/10/09 16:43:54;;;;;;;3.50;1.53;;;15.40;1.00;;;;;;5084036;28;20787;-75
2022/10/09 16:46:24;;;;;;;1.57;1.40;;;15.10;1.00;;;;;;5083730;28;20443;-75
2022/10/09 16:48:51;;;;;;;2.70;1.50;;;14.90;1.00;;;;;;5084575;28;20442;-74
2022/10/09 16:51:31;;;;;;;1.83;1.30;;;14.60;1.00;;;;;;5072998;28;20433;-75
2022/10/09 16:53:59;;;;;;;5.40;1.60;;;14.40;1.00;;;;;;5081291;28;20392;-75
2022/10/09 16:56:27;;;;;;;2.70;1.77;;;14.20;1.00;;;;;;5080040;28;21288;-75
2022/10/09 16:58:55;;;;;;;2.80;1.70;;;14.00;1.00;;;;;;5080559;28;20394;-75
2022/10/09 17:01:22;;;;;;;2.80;1.70;;;13.80;1.00;;;;;;5083682;28;20429;-76
2022/10/09 17:03:57;;;;;;;3.83;1.57;;;13.60;1.00;;;;;;5075651;28;20432;-75
2022/10/09 17:06:23;;;;;;;5.53;1.73;;;13.40;1.00;;;;;;5077147;28;20397;-75
2022/10/09 17:08:51;;;;;;;5.17;1.90;;;13.20;1.00;;;;;;5082046;28;20404;-75
2022/10/09 17:11:17;;;;;;;21.47;3.07;;;13.00;1.00;;;;;;5076714;28;20431;-74
2022/10/09 17:13:43;;;;;;;3.47;2.30;;;12.90;1.00;;;;;;5076186;28;20429;-75
2022/10/09 17:16:17;;;;;;;3.60;2.20;;;12.80;1.00;;;;;;5084530;28;20191;-75
2022/10/09 17:18:43;;;;;;;4.37;2.00;;;12.60;1.00;;;;;;5085068;28;20393;-75
2022/10/09 17:21:26;;;;;;;3.37;2.00;;;12.50;1.00;;;;;;5079484;28;20970;-75
2022/10/09 17:24:19;;;;;;;4.93;2.20;;;12.30;1.00;;;;;;5077400;28;20436;-75
2022/10/09 17:26:45;;;;;;;4.47;2.60;;;12.30;1.00;;;;;;5084593;28;20424;-75
2022/10/09 17:29:14;;;;;;;4.87;1.90;;;12.10;1.00;;;;;;5082994;28;20412;-75
2022/10/09 17:31:40;;;;;;;3.23;2.20;;;12.00;1.00;;;;;;5095503;28;20409;-75